createdAt,value
2018-02-20T00:00:25.498Z,56.97
2018-02-20T00:02:53.806Z,73.60
2018-02-20T00:05:22.226Z,61.58
2018-02-20T00:07:50.655Z,53.35
2018-02-20T00:10:18.986Z,60.72
2018-02-20T00:12:47.355Z,66.07
2018-02-20T00:15:15.697Z,58.05
2018-02-20T00:17:44.022Z,61.20
2018-02-20T00:20:12.386Z,62.20
2018-02-20T00:22:40.714Z,64.50
2018-02-20T00:25:09.064Z,59.38
2018-02-20T00:27:37.391Z,69.43
2018-02-20T00:30:05.738Z,60.20
2018-02-20T00:32:34.061Z,58.13
2018-02-20T00:35:02.442Z,58.25
2018-02-20T00:37:30.825Z,67.90
2018-02-20T00:39:59.198Z,56.78
2018-02-20T00:42:27.595Z,56.53
2018-02-20T00:44:55.954Z,58.78
2018-02-20T00:47:24.334Z,61.85
2018-02-20T00:49:52.711Z,59.53
2018-02-20T00:52:21.085Z,60.50
2018-02-20T00:54:49.434Z,54.92
2018-02-20T00:57:17.846Z,69.68
2018-02-20T00:59:46.193Z,55.95
2018-02-20T01:02:14.601Z,60.38
2018-02-20T01:04:42.974Z,70.82
2018-02-20T01:07:11.298Z,71.22
2018-02-20T01:09:39.726Z,69.12
2018-02-20T01:12:08.102Z,69.60
2018-02-20T01:14:36.446Z,67.00
2018-02-20T01:17:04.860Z,60.92
2018-02-20T01:19:33.205Z,74.35
2018-02-20T01:22:01.530Z,58.05
2018-02-20T01:24:29.874Z,73.93
2018-02-20T01:26:58.198Z,65.28
2018-02-20T01:29:26.642Z,65.05
2018-02-20T01:31:54.970Z,70.18
2018-02-20T01:34:23.393Z,55.78
2018-02-20T01:36:51.722Z,56.25
2018-02-20T01:39:20.153Z,50.67
2018-02-20T01:41:48.526Z,62.60
2018-02-20T01:44:16.906Z,60.47
2018-02-20T01:46:45.281Z,59.83
2018-02-20T01:49:13.634Z,59.83
2018-02-20T01:51:41.962Z,60.90
2018-02-20T01:54:10.305Z,68.78
2018-02-20T01:56:38.690Z,59.03
2018-02-20T01:59:07.066Z,69.85
2018-02-20T02:01:35.418Z,62.35
2018-02-20T02:04:03.822Z,58.50
2018-02-20T02:06:32.198Z,62.70
2018-02-20T02:09:00.521Z,59.35
2018-02-20T02:11:28.955Z,69.03
2018-02-20T02:13:57.353Z,67.82
2018-02-20T02:16:25.706Z,69.10
2018-02-20T02:18:54.038Z,72.22
2018-02-20T02:21:22.466Z,59.17
2018-02-20T02:23:50.863Z,75.70
2018-02-20T02:26:19.218Z,64.95
2018-02-20T02:28:47.598Z,60.78
2018-02-20T02:31:15.958Z,64.22
2018-02-20T02:33:44.351Z,69.32
2018-02-20T02:36:12.694Z,70.25
2018-02-20T02:38:41.014Z,75.22
2018-02-20T02:41:09.383Z,67.55
2018-02-20T02:43:37.754Z,69.65
2018-02-20T02:46:06.134Z,65.57
2018-02-20T02:48:34.511Z,63.30
2018-02-20T02:51:02.857Z,74.53
2018-02-20T02:53:31.187Z,65.62
2018-02-20T02:55:59.529Z,62.83
2018-02-20T02:58:27.914Z,72.07
2018-02-20T03:00:56.493Z,64.37
2018-02-20T03:03:24.776Z,67.15
2018-02-20T03:05:53.118Z,67.30
2018-02-20T03:08:21.442Z,64.20
2018-02-20T03:10:49.802Z,59.63
2018-02-20T03:13:18.178Z,70.70
2018-02-20T03:15:46.522Z,55.42
2018-02-20T03:18:14.846Z,56.88
2018-02-20T03:20:43.210Z,59.40
2018-02-20T03:23:11.534Z,60.22
2018-02-20T03:25:39.966Z,62.47
2018-02-20T03:28:08.303Z,62.70
2018-02-20T03:30:36.719Z,59.95
2018-02-20T03:33:05.041Z,61.47
2018-02-20T03:35:33.387Z,59.78
2018-02-20T03:38:01.803Z,64.40
2018-02-20T03:40:30.131Z,62.78
2018-02-20T03:42:58.462Z,61.65
2018-02-20T03:45:26.809Z,76.03
2018-02-20T03:47:55.154Z,69.30
2018-02-20T03:50:23.506Z,78.28
2018-02-20T03:52:51.826Z,66.12
2018-02-20T03:55:20.151Z,64.43
2018-02-20T03:57:48.557Z,72.82
2018-02-20T04:00:16.938Z,70.37
2018-02-20T04:02:45.314Z,69.87
2018-02-20T04:05:13.694Z,73.55
2018-02-20T04:07:42.040Z,67.07
2018-02-20T04:10:10.437Z,67.20
2018-02-20T04:12:38.827Z,65.85
2018-02-20T04:15:07.156Z,64.57
2018-02-20T04:17:35.508Z,66.87
2018-02-20T04:20:03.837Z,65.00
2018-02-20T04:22:32.230Z,66.53
2018-02-20T04:25:00.550Z,60.88
2018-02-20T04:27:28.986Z,61.85
2018-02-20T04:29:57.362Z,73.90
2018-02-20T04:32:25.705Z,68.28
2018-02-20T04:34:54.138Z,58.87
2018-02-20T04:37:22.598Z,65.50
2018-02-20T04:39:50.981Z,63.72
2018-02-20T04:42:19.326Z,68.43
2018-02-20T04:44:47.662Z,68.95
2018-02-20T04:47:16.110Z,73.90
2018-02-20T04:49:44.446Z,73.05
2018-02-20T04:52:12.857Z,68.57
2018-02-20T04:54:41.241Z,65.78
2018-02-20T04:57:09.590Z,75.70
2018-02-20T04:59:38.003Z,66.15
2018-02-20T05:02:06.360Z,72.43
2018-02-20T05:04:34.687Z,74.15
2018-02-20T05:07:03.126Z,74.78
2018-02-20T05:09:31.510Z,85.15
2018-02-20T05:11:59.853Z,96.12
2018-02-20T05:14:28.253Z,99.68
2018-02-20T05:16:56.637Z,92.85
2018-02-20T05:19:25.010Z,60.85
2018-02-20T05:21:53.390Z,68.10
2018-02-20T05:24:21.726Z,94.10
2018-02-20T05:26:50.141Z,94.13
2018-02-20T05:29:18.473Z,77.60
2018-02-20T05:31:46.830Z,104.38
2018-02-20T05:34:15.169Z,89.70
2018-02-20T05:36:43.522Z,97.70
2018-02-20T05:39:11.854Z,96.13
2018-02-20T05:41:40.305Z,101.03
2018-02-20T05:44:08.682Z,101.22
2018-02-20T05:46:37.986Z,93.80
2018-02-20T05:49:06.322Z,89.80
2018-02-20T05:51:34.673Z,76.97
2018-02-20T05:54:03.114Z,77.57
2018-02-20T05:56:31.500Z,78.87
2018-02-20T05:58:59.848Z,78.67
2018-02-20T06:01:28.211Z,69.47
2018-02-20T06:03:56.623Z,86.05
2018-02-20T06:06:25.004Z,76.53
2018-02-20T06:08:53.378Z,77.37
2018-02-20T06:11:21.719Z,87.15
2018-02-20T06:13:50.079Z,76.53
2018-02-20T06:16:18.403Z,71.63
2018-02-20T06:18:46.762Z,70.13
2018-02-20T06:21:15.163Z,73.70
2018-02-20T06:23:43.514Z,70.40
2018-02-20T06:26:12.802Z,72.07
2018-02-20T06:28:41.153Z,64.20
2018-02-20T06:31:09.520Z,85.53
2018-02-20T06:33:38.075Z,63.60
2018-02-20T06:36:07.346Z,67.90
2018-02-20T06:38:35.854Z,69.03
2018-02-20T06:41:04.186Z,71.82
2018-02-20T06:43:32.621Z,76.27
2018-02-20T06:46:01.869Z,61.17
2018-02-20T06:48:30.213Z,66.32
2018-02-20T06:50:58.542Z,64.07
2018-02-20T06:53:26.898Z,58.30
2018-02-20T06:55:55.221Z,68.40
2018-02-20T06:58:23.579Z,67.30
2018-02-20T07:00:51.918Z,68.70
2018-02-20T07:03:20.279Z,65.23
2018-02-20T07:05:48.606Z,72.60
2018-02-20T07:08:17.750Z,76.82
2018-02-20T07:10:46.078Z,64.40
2018-02-20T07:13:14.438Z,72.70
2018-02-20T07:15:42.774Z,68.57
2018-02-20T07:18:11.125Z,76.80
2018-02-20T07:20:39.457Z,76.10
2018-02-20T07:23:07.820Z,83.47
2018-02-20T07:25:36.155Z,94.73
2018-02-20T07:28:04.511Z,87.20
2018-02-20T07:30:32.852Z,81.00
2018-02-20T07:33:01.201Z,85.90
2018-02-20T07:35:29.537Z,86.00
2018-02-20T07:37:57.894Z,84.53
2018-02-20T07:40:26.228Z,77.32
2018-02-20T07:42:54.578Z,71.32
2018-02-20T07:45:22.910Z,87.60
2018-02-20T07:47:51.270Z,78.97
2018-02-20T07:50:19.610Z,77.20
2018-02-20T07:52:47.962Z,84.60
2018-02-20T07:55:16.298Z,83.30
2018-02-20T07:57:44.650Z,99.50
2018-02-20T08:00:12.990Z,74.12
2018-02-20T08:02:41.329Z,82.20
2018-02-20T08:05:09.694Z,86.67
2018-02-20T08:07:38.030Z,77.87
2018-02-20T08:10:06.958Z,83.37
2018-02-20T08:12:35.310Z,89.83
2018-02-20T08:15:03.669Z,77.23
2018-02-20T08:17:32.001Z,83.78
2018-02-20T08:20:00.362Z,78.67
2018-02-20T08:22:28.693Z,81.15
2018-02-20T08:24:57.061Z,77.30
2018-02-20T08:27:25.437Z,93.70
2018-02-20T08:29:53.778Z,85.87
2018-02-20T08:32:22.131Z,87.73
2018-02-20T08:34:50.483Z,96.47
2018-02-20T08:37:18.841Z,83.67
2018-02-20T08:39:47.197Z,91.70
2018-02-20T08:42:15.534Z,84.05
2018-02-20T08:44:43.881Z,84.13
2018-02-20T08:47:12.211Z,79.03
2018-02-20T08:49:41.454Z,81.43
2018-02-20T08:52:09.781Z,84.83
2018-02-20T08:54:38.131Z,85.67
2018-02-20T08:57:06.461Z,86.32
2018-02-20T08:59:34.822Z,85.30
2018-02-20T09:02:03.154Z,79.37
2018-02-20T09:04:31.507Z,86.97
2018-02-20T09:06:59.829Z,83.53
2018-02-20T09:09:28.182Z,82.50
2018-02-20T09:11:56.511Z,84.87
2018-02-20T09:14:24.854Z,77.90
2018-02-20T09:16:53.186Z,93.45
2018-02-20T09:19:21.538Z,81.77
2018-02-20T09:21:49.866Z,82.23
2018-02-20T09:24:18.215Z,82.97
2018-02-20T09:26:46.543Z,69.37
2018-02-20T09:29:15.790Z,72.50
2018-02-20T09:31:44.136Z,76.50
2018-02-20T09:34:12.469Z,75.07
2018-02-20T09:36:40.828Z,76.15
2018-02-20T09:39:09.145Z,64.00
2018-02-20T09:41:37.470Z,60.17
2018-02-20T09:44:05.817Z,67.10
2018-02-20T09:46:34.152Z,77.10
2018-02-20T09:49:03.426Z,69.90
2018-02-20T09:51:31.759Z,80.70
2018-02-20T09:54:00.103Z,75.53
2018-02-20T09:56:28.443Z,65.43
2018-02-20T09:58:56.786Z,68.18
2018-02-20T10:01:25.110Z,82.57
2018-02-20T10:03:53.470Z,65.40
2018-02-20T10:06:21.798Z,74.23
2018-02-20T10:08:50.947Z,66.30
2018-02-20T10:11:19.290Z,70.03
2018-02-20T10:13:47.623Z,53.47
2018-02-20T10:16:15.970Z,68.60
2018-02-20T10:18:44.298Z,59.60
2018-02-20T10:21:12.657Z,61.63
2018-02-20T10:23:40.981Z,61.83
2018-02-20T10:26:09.336Z,66.30
2018-02-20T10:28:37.662Z,61.97
2018-02-20T10:31:06.018Z,63.33
2018-02-20T10:33:34.337Z,75.60
2018-02-20T10:36:02.695Z,65.90
2018-02-20T10:38:31.022Z,67.30
2018-02-20T10:40:59.446Z,66.03
2018-02-20T10:43:27.778Z,58.33
2018-02-20T10:45:56.139Z,63.80
2018-02-20T10:48:25.300Z,64.00
2018-02-20T10:50:53.642Z,53.50
2018-02-20T10:53:21.977Z,59.63
2018-02-20T10:55:51.402Z,51.97
2018-02-20T10:58:19.746Z,54.97
2018-02-20T11:00:48.121Z,59.85
2018-02-20T11:03:16.455Z,59.23
2018-02-20T11:05:44.850Z,53.72
2018-02-20T11:08:13.186Z,59.53
2018-02-20T11:10:41.545Z,62.07
2018-02-20T11:13:09.878Z,54.20
2018-02-20T11:15:39.067Z,58.07
2018-02-20T11:18:07.395Z,68.20
2018-02-20T11:20:35.746Z,52.20
2018-02-20T11:23:04.070Z,65.57
2018-02-20T11:25:32.509Z,60.07
2018-02-20T11:28:00.829Z,49.43
2018-02-20T11:30:29.183Z,59.20
2018-02-20T11:32:57.510Z,61.30
2018-02-20T11:35:25.874Z,59.28
2018-02-20T11:37:54.207Z,55.90
2018-02-20T11:40:22.554Z,62.85
2018-02-20T11:42:50.882Z,57.13
2018-02-20T11:45:19.234Z,61.00
2018-02-20T11:47:47.557Z,56.80
2018-02-20T11:50:15.906Z,55.63
2018-02-20T11:52:44.240Z,57.10
2018-02-20T11:55:12.590Z,61.57
2018-02-20T11:57:40.917Z,59.92
2018-02-20T12:00:09.275Z,58.93
2018-02-20T12:02:37.606Z,60.13
2018-02-20T12:05:05.954Z,59.60
2018-02-20T12:07:35.094Z,58.40
2018-02-20T12:10:03.447Z,61.03
2018-02-20T12:12:31.774Z,61.20
2018-02-20T12:15:00.099Z,61.87
2018-02-20T12:17:28.514Z,61.40
2018-02-20T12:19:56.830Z,55.60
2018-02-20T12:22:25.175Z,58.70
2018-02-20T12:24:53.507Z,59.70
2018-02-20T12:27:22.026Z,54.90
2018-02-20T12:29:50.362Z,58.73
2018-02-20T12:32:18.708Z,61.77
2018-02-20T12:34:47.029Z,72.80
2018-02-20T12:37:15.386Z,59.70
2018-02-20T12:39:43.730Z,54.40
2018-02-20T12:42:12.082Z,79.32
2018-02-20T12:44:40.407Z,57.53
2018-02-20T12:47:09.762Z,58.58
2018-02-20T12:49:38.085Z,62.03
2018-02-20T12:52:06.438Z,46.03
2018-02-20T12:54:34.769Z,51.47
2018-02-20T12:57:03.114Z,55.73
2018-02-20T12:59:31.439Z,72.03
2018-02-20T13:01:59.792Z,67.87
2018-02-20T13:04:28.123Z,111.93
2018-02-20T13:06:56.482Z,69.43
2018-02-20T13:09:24.814Z,62.00
2018-02-20T13:11:53.162Z,67.37
2018-02-20T13:14:21.498Z,62.08
2018-02-20T13:16:49.854Z,59.08
2018-02-20T13:19:18.178Z,71.23
2018-02-20T13:21:46.534Z,66.15
2018-02-20T13:24:14.862Z,69.50
2018-02-20T13:26:44.111Z,73.22
2018-02-20T13:29:12.434Z,80.17
2018-02-20T13:31:40.786Z,76.90
2018-02-20T13:34:09.126Z,78.05
2018-02-20T13:36:38.463Z,69.30
2018-02-20T13:39:06.792Z,72.70
2018-02-20T13:41:35.136Z,80.73
2018-02-20T13:44:03.475Z,75.25
2018-02-20T13:46:31.822Z,78.17
2018-02-20T13:49:00.150Z,79.90
2018-02-20T13:51:28.503Z,89.47
2018-02-20T13:53:56.826Z,84.33
2018-02-20T13:56:25.178Z,88.95
2018-02-20T13:58:53.502Z,78.60
2018-02-20T14:01:21.854Z,83.97
2018-02-20T14:03:50.270Z,82.00
2018-02-20T14:06:18.603Z,77.60
2018-02-20T14:08:46.926Z,75.00
2018-02-20T14:11:15.278Z,78.20
2018-02-20T14:13:43.610Z,76.37
2018-02-20T14:16:11.964Z,85.47
2018-02-20T14:18:40.333Z,89.63
2018-02-20T14:21:08.794Z,80.65
2018-02-20T14:23:37.142Z,107.67
2018-02-20T14:26:06.406Z,160.77
2018-02-20T14:28:34.953Z,319.62
2018-02-20T14:31:03.311Z,345.03
2018-02-20T14:33:31.873Z,89.40
2018-02-20T14:36:01.158Z,77.72
2018-02-20T14:38:29.511Z,76.57
2018-02-20T14:40:57.846Z,81.03
2018-02-20T14:43:26.194Z,74.78
2018-02-20T14:45:55.410Z,90.53
2018-02-20T14:48:24.893Z,87.00
2018-02-20T14:50:53.205Z,81.07
2018-02-20T14:53:21.563Z,91.27
2018-02-20T14:55:54.825Z,83.53
2018-02-20T14:58:25.559Z,76.65
2018-02-20T15:00:53.869Z,86.57
2018-02-20T15:03:22.433Z,86.67
2018-02-20T15:05:51.082Z,77.30
2018-02-20T15:08:19.432Z,77.37
2018-02-20T15:10:47.762Z,96.20
2018-02-20T15:13:16.110Z,85.07
2018-02-20T15:15:44.434Z,82.43
2018-02-20T15:18:12.806Z,87.30
2018-02-20T15:20:41.137Z,79.13
2018-02-20T15:23:09.747Z,83.97
2018-02-20T15:25:38.108Z,77.17
2018-02-20T15:28:08.671Z,77.53
2018-02-20T15:30:43.647Z,75.55
2018-02-20T15:33:11.954Z,91.93
2018-02-20T15:35:42.915Z,83.77
2018-02-20T15:38:11.285Z,82.60
2018-02-20T15:40:39.615Z,84.40
2018-02-20T15:43:07.979Z,78.90
2018-02-20T15:45:36.306Z,80.27
2018-02-20T15:48:05.059Z,89.05
2018-02-20T15:50:33.478Z,87.50
2018-02-20T15:53:01.860Z,79.90
2018-02-20T15:55:30.234Z,71.47
2018-02-20T15:57:58.880Z,73.13
2018-02-20T16:00:27.311Z,76.33
2018-02-20T16:02:55.834Z,90.00
2018-02-20T16:05:24.175Z,91.67
2018-02-20T16:07:52.531Z,77.57
2018-02-20T16:10:20.854Z,79.97
2018-02-20T16:12:49.204Z,90.73
2018-02-20T16:15:17.537Z,78.53
2018-02-20T16:17:45.942Z,80.43
2018-02-20T16:20:14.370Z,80.27
2018-02-20T16:22:42.797Z,75.70
2018-02-20T16:25:11.125Z,74.50
2018-02-20T16:27:39.555Z,72.22
2018-02-20T16:30:07.922Z,77.87
2018-02-20T16:32:36.279Z,75.23
2018-02-20T16:35:04.680Z,72.20
2018-02-20T16:37:33.014Z,83.53
2018-02-20T16:40:01.384Z,76.43
2018-02-20T16:42:29.711Z,80.23
2018-02-20T16:44:58.059Z,96.75
2018-02-20T16:47:26.482Z,77.23
2018-02-20T16:49:54.835Z,81.32
2018-02-20T16:52:23.230Z,80.70
2018-02-20T16:54:51.823Z,81.57
2018-02-20T16:57:20.176Z,73.67
2018-02-20T16:59:48.542Z,75.03
2018-02-20T17:02:16.934Z,82.53
2018-02-20T17:04:45.309Z,77.63
2018-02-20T17:07:13.689Z,81.53
2018-02-20T17:09:42.064Z,69.97
2018-02-20T17:12:10.407Z,76.63
2018-02-20T17:14:38.838Z,81.95
2018-02-20T17:17:07.186Z,70.20
2018-02-20T17:19:35.578Z,78.93
2018-02-20T17:22:03.910Z,88.83
2018-02-20T17:24:32.454Z,98.00
2018-02-20T17:27:00.915Z,109.40
2018-02-20T17:29:29.432Z,91.57
2018-02-20T17:31:57.870Z,88.63
2018-02-20T17:34:26.245Z,106.53
2018-02-20T17:36:54.584Z,122.40
2018-02-20T17:39:22.933Z,108.90
2018-02-20T17:41:51.385Z,98.70
2018-02-20T17:44:19.743Z,101.33
2018-02-20T17:46:48.138Z,89.17
2018-02-20T17:49:16.499Z,102.30
2018-02-20T17:51:44.828Z,102.72
2018-02-20T17:54:13.258Z,96.73
2018-02-20T17:56:41.667Z,93.97
2018-02-20T17:59:10.035Z,93.70
2018-02-20T18:01:38.353Z,100.90
2018-02-20T18:04:06.774Z,89.40
2018-02-20T18:06:35.160Z,97.73
2018-02-20T18:09:03.514Z,90.07
2018-02-20T18:11:31.836Z,105.37
2018-02-20T18:14:00.387Z,103.20
2018-02-20T18:16:29.651Z,107.93
2018-02-20T18:18:58.070Z,100.40
2018-02-20T18:21:26.406Z,108.77
2018-02-20T18:23:54.758Z,111.00
2018-02-20T18:26:24.119Z,108.37
2018-02-20T18:28:52.475Z,101.43
2018-02-20T18:31:20.816Z,95.95
2018-02-20T18:33:49.242Z,99.23
2018-02-20T18:36:17.632Z,102.60
2018-02-20T18:38:45.991Z,102.77
2018-02-20T18:41:14.317Z,93.35
2018-02-20T18:43:42.754Z,89.87
2018-02-20T18:46:11.114Z,102.20
2018-02-20T18:48:39.598Z,113.05
2018-02-20T18:51:08.027Z,110.90
2018-02-20T18:53:36.370Z,106.60
2018-02-20T18:56:06.623Z,119.00
2018-02-20T18:58:38.579Z,93.47
2018-02-20T19:01:10.604Z,102.95
2018-02-20T19:03:38.925Z,111.73
2018-02-20T19:06:08.266Z,100.22
2018-02-20T19:08:36.658Z,100.23
2018-02-20T19:11:05.045Z,99.05
2018-02-20T19:13:33.383Z,107.43
2018-02-20T19:16:02.716Z,101.28
2018-02-20T19:18:31.047Z,103.90
2018-02-20T19:20:59.409Z,99.17
2018-02-20T19:23:27.734Z,95.03
2018-02-20T19:25:57.033Z,96.78
2018-02-20T19:28:25.369Z,96.43
2018-02-20T19:30:53.806Z,114.13
2018-02-20T19:33:22.182Z,119.17
2018-02-20T19:35:51.162Z,120.63
2018-02-20T19:38:19.503Z,118.28
2018-02-20T19:40:47.930Z,104.03
2018-02-20T19:43:16.962Z,104.83
2018-02-20T19:45:45.315Z,102.80
2018-02-20T19:48:13.674Z,126.17
2018-02-20T19:50:42.052Z,103.63
2018-02-20T19:53:22.162Z,112.77
2018-02-20T19:55:53.875Z,120.57
2018-02-20T19:58:22.239Z,106.47
2018-02-20T20:00:50.594Z,109.03
2018-02-20T20:03:18.971Z,105.53
2018-02-20T20:05:47.371Z,96.90
2018-02-20T20:08:15.702Z,114.77
2018-02-20T20:10:44.295Z,101.12
2018-02-20T20:13:12.626Z,99.60
2018-02-20T20:15:41.083Z,102.77
2018-02-20T20:18:09.436Z,113.77
2018-02-20T20:20:37.847Z,105.37
2018-02-20T20:23:06.213Z,119.37
2018-02-20T20:25:34.590Z,113.03
2018-02-20T20:28:02.953Z,118.57
2018-02-20T20:30:31.966Z,113.85
2018-02-20T20:33:00.307Z,104.60
2018-02-20T20:35:28.717Z,121.40
2018-02-20T20:37:57.054Z,132.50
2018-02-20T20:40:25.414Z,117.28
2018-02-20T20:42:53.846Z,120.73
2018-02-20T20:45:22.207Z,110.47
2018-02-20T20:47:50.605Z,113.20
2018-02-20T20:50:19.771Z,123.45
2018-02-20T20:52:48.106Z,109.70
2018-02-20T20:55:16.483Z,107.60
2018-02-20T20:57:44.826Z,111.62
2018-02-20T21:00:13.490Z,107.33
2018-02-20T21:02:41.825Z,118.33
2018-02-20T21:05:10.269Z,104.90
2018-02-20T21:07:38.602Z,108.28
2018-02-20T21:10:07.510Z,118.90
2018-02-20T21:12:35.914Z,112.57
2018-02-20T21:15:04.341Z,99.93
2018-02-20T21:17:32.770Z,118.30
2018-02-20T21:20:01.147Z,96.65
2018-02-20T21:22:29.521Z,102.10
2018-02-20T21:24:58.618Z,110.13
2018-02-20T21:27:26.978Z,101.17
2018-02-20T21:29:55.320Z,108.47
2018-02-20T21:32:23.758Z,107.85
2018-02-20T21:34:52.082Z,95.57
2018-02-20T21:37:20.454Z,117.93
2018-02-20T21:39:48.874Z,111.03
2018-02-20T21:42:17.266Z,107.27
2018-02-20T21:44:45.643Z,104.47
2018-02-20T21:47:13.999Z,111.90
2018-02-20T21:49:42.334Z,113.60
2018-02-20T21:52:11.379Z,107.17
2018-02-20T21:54:39.714Z,100.30
2018-02-20T21:57:08.078Z,110.77
2018-02-20T21:59:36.410Z,99.62
2018-02-20T22:02:04.771Z,103.00
2018-02-20T22:04:33.110Z,109.37
2018-02-20T22:07:01.474Z,110.27
2018-02-20T22:09:29.854Z,107.03
2018-02-20T22:11:58.341Z,100.13
2018-02-20T22:14:26.682Z,113.93
2018-02-20T22:16:55.030Z,115.17
2018-02-20T22:19:23.361Z,115.80
2018-02-20T22:21:51.802Z,113.82
2018-02-20T22:24:20.215Z,117.37
2018-02-20T22:26:48.662Z,116.35
2018-02-20T22:29:16.994Z,121.90
2018-02-20T22:31:45.428Z,109.43
2018-02-20T22:34:13.794Z,112.65
2018-02-20T22:36:42.166Z,120.30
2018-02-20T22:39:10.494Z,131.27
2018-02-20T22:41:38.841Z,109.05
2018-02-20T22:44:07.178Z,115.30
2018-02-20T22:46:35.538Z,125.12
2018-02-20T22:49:03.957Z,116.25
2018-02-20T22:51:32.331Z,111.10
2018-02-20T22:54:00.658Z,112.00
2018-02-20T22:56:29.030Z,111.37
2018-02-20T22:58:57.385Z,116.60
2018-02-20T23:01:25.730Z,128.60
2018-02-20T23:03:54.072Z,116.32
2018-02-20T23:06:22.439Z,120.28
2018-02-20T23:08:50.809Z,107.10
2018-02-20T23:14:22.951Z,101.07
2018-02-20T23:16:51.302Z,109.97
2018-02-20T23:19:19.684Z,105.12
2018-02-20T23:21:48.062Z,101.97
2018-02-20T23:24:16.466Z,109.18
2018-02-20T23:26:44.850Z,113.03
2018-02-20T23:29:13.217Z,115.20
2018-02-20T23:31:41.570Z,114.15
2018-02-20T23:34:09.971Z,120.15
2018-02-20T23:36:38.343Z,111.80
2018-02-20T23:39:06.729Z,111.75
2018-02-20T23:41:35.108Z,106.18
2018-02-20T23:44:03.437Z,97.40
2018-02-20T23:46:31.762Z,104.70
2018-02-20T23:49:00.138Z,105.93
2018-02-20T23:51:34.106Z,112.20
2018-02-20T23:54:02.461Z,102.82
2018-02-20T23:56:30.894Z,100.75
2018-02-20T23:58:59.278Z,105.22
